Terminal Aerodrome Forecast
Issued by NWS Mobile, AL

Home | Current Version | Previous Version | Text Only | Print | Product List | Glossary On
Versions: 1 2 3 4 5 6 7 8 9 10 11 12 13 14 15 16
000
FTUS44 KMOB 281634 AAB
TAFPNS
TAF AMD
KPNS 281634Z 2817/2912 25004KT P6SM VCSH FEW020 SCT027 BKN040
     FM281900 20012KT P6SM SCT250
     FM290600 21004KT P6SM OVC005=

USA.gov is the U.S. government's official web portal to all federal, state and local government web resources and services.